Time;durP1;ratioP1;P1;durP2;ratioP2;P2;SDS_P1;SDS_P2;PMS_P1;PMS_P2;Temp;Humidity;BMP_temperature;BMP_pressure;BME280_temperature;BME280_humidity;BME280_pressure;Samples;Min_cycle;Max_cycle;Signal;HPM_P1;HPM_P2
2023/10/21 00:01:57;;;;;;;5.57;1.50;;;11.60;99.90;;;;;;4972883;28;20026;-82
2023/10/21 00:04:23;;;;;;;1.98;1.35;;;11.60;99.90;;;;;;4991707;28;20026;-81
2023/10/21 00:06:48;;;;;;;2.22;0.98;;;11.60;99.90;;;;;;4976273;28;20509;-81
2023/10/21 00:09:14;;;;;;;4.25;1.55;;;11.60;99.90;;;;;;4960575;28;20046;-81
2023/10/21 00:11:40;;;;;;;4.47;1.23;;;11.50;99.90;;;;;;4959906;28;20037;-81
2023/10/21 00:14:06;;;;;;;6.00;1.40;;;11.50;99.90;;;;;;4973895;28;20106;-81
2023/10/21 00:16:32;;;;;;;4.22;1.20;;;11.50;99.90;;;;;;4968793;28;20023;-81
2023/10/21 00:18:57;;;;;;;2.45;1.55;;;11.40;99.90;;;;;;4975141;28;20498;-81
2023/10/21 00:21:23;;;;;;;3.03;1.20;;;11.40;99.90;;;;;;4972985;28;20490;-82
2023/10/21 00:23:48;;;;;;;10.25;1.63;;;11.40;99.90;;;;;;4958255;28;20038;-81
2023/10/21 00:26:16;;;;;;;3.00;1.40;;;11.40;99.90;;;;;;4974051;28;20034;-81
2023/10/21 00:28:41;;;;;;;1.55;1.17;;;11.40;99.90;;;;;;4960956;28;20150;-82
2023/10/21 00:31:07;;;;;;;3.05;1.00;;;11.60;99.90;;;;;;4974652;28;20109;-82
2023/10/21 00:33:32;;;;;;;1.48;0.88;;;11.40;99.90;;;;;;4955778;28;20328;-81
2023/10/21 00:35:58;;;;;;;3.33;1.10;;;11.40;99.90;;;;;;4973115;28;20030;-81
2023/10/21 00:38:23;;;;;;;1.90;1.00;;;11.40;99.90;;;;;;4954672;28;20042;-82
2023/10/21 00:40:53;;;;;;;2.28;1.48;;;11.30;99.90;;;;;;4957744;28;20112;-81
2023/10/21 00:43:35;;;;;;;2.03;1.52;;;11.20;99.90;;;;;;4976781;28;20034;-81
2023/10/21 00:46:05;;;;;;;1.10;1.00;;;11.20;99.90;;;;;;4973529;28;20031;-81
2023/10/21 00:48:32;;;;;;;4.53;1.38;;;11.20;99.90;;;;;;4959916;28;20040;-81
2023/10/21 00:50:57;;;;;;;1.83;1.30;;;11.20;99.90;;;;;;4973837;28;20529;-81
2023/10/21 00:53:23;;;;;;;5.03;1.10;;;11.20;99.90;;;;;;4975016;28;20030;-81
2023/10/21 00:55:49;;;;;;;2.92;1.00;;;11.30;99.90;;;;;;4962423;28;20402;-81
2023/10/21 00:58:15;;;;;;;4.13;1.00;;;11.30;99.90;;;;;;4968708;28;20043;-81
2023/10/21 01:00:40;;;;;;;1.92;0.77;;;11.30;99.90;;;;;;4958577;28;20053;-81
2023/10/21 01:03:06;;;;;;;3.08;1.10;;;11.30;99.90;;;;;;4959392;28;20026;-81
2023/10/21 01:05:31;;;;;;;2.78;1.00;;;11.30;99.90;;;;;;4975664;28;20039;-80
2023/10/21 01:08:00;;;;;;;0.93;0.90;;;11.30;99.90;;;;;;4971665;28;20037;-81
2023/10/21 01:10:28;;;;;;;1.50;1.00;;;11.50;99.90;;;;;;4958112;28;20042;-81
2023/10/21 01:12:54;;;;;;;1.58;0.93;;;11.40;99.90;;;;;;4973648;28;20039;-81
2023/10/21 01:15:19;;;;;;;2.45;1.15;;;11.50;99.90;;;;;;4991521;28;20074;-80
2023/10/21 01:17:51;;;;;;;6.75;1.13;;;11.50;99.90;;;;;;4972618;28;20041;-79
2023/10/21 01:20:17;;;;;;;1.67;0.80;;;11.50;99.90;;;;;;4974943;28;20034;-79
2023/10/21 01:22:43;;;;;;;2.53;0.90;;;11.50;99.90;;;;;;4972689;28;20479;-80
2023/10/21 01:25:09;;;;;;;2.45;0.85;;;11.50;99.90;;;;;;4975161;28;20087;-79
2023/10/21 01:27:34;;;;;;;5.40;1.20;;;11.60;99.90;;;;;;4970790;28;20034;-79
2023/10/21 01:30:00;;;;;;;5.20;1.20;;;11.60;99.90;;;;;;4970627;28;20041;-80
2023/10/21 01:32:25;;;;;;;2.22;1.17;;;11.60;99.90;;;;;;4952982;28;20053;-80
2023/10/21 01:34:51;;;;;;;4.20;1.10;;;11.60;99.90;;;;;;4971865;28;20037;-80
2023/10/21 01:37:17;;;;;;;1.60;1.00;;;11.60;99.90;;;;;;4955127;28;20041;-80
2023/10/21 01:39:43;;;;;;;1.10;0.88;;;11.70;99.90;;;;;;4968599;28;20038;-80
2023/10/21 01:42:09;;;;;;;4.70;0.93;;;11.70;99.90;;;;;;4970552;28;20050;-81
2023/10/21 01:44:35;;;;;;;1.58;0.75;;;11.70;99.90;;;;;;4971363;28;20065;-80
2023/10/21 01:47:00;;;;;;;2.60;1.10;;;11.70;99.90;;;;;;4971932;28;20046;-80
2023/10/21 01:49:26;;;;;;;1.48;1.00;;;11.80;99.90;;;;;;4954209;28;20038;-79
2023/10/21 01:51:51;;;;;;;1.98;0.80;;;11.80;99.90;;;;;;4966517;28;20121;-80
2023/10/21 01:54:17;;;;;;;5.32;1.10;;;11.80;99.90;;;;;;4970966;28;20368;-80
2023/10/21 01:56:42;;;;;;;1.88;0.80;;;11.90;99.90;;;;;;4957647;28;20402;-80
2023/10/21 01:59:08;;;;;;;2.88;1.15;;;11.90;99.90;;;;;;4957853;28;20031;-80
2023/10/21 02:01:34;;;;;;;1.10;0.90;;;11.90;99.90;;;;;;4972070;28;20050;-80
2023/10/21 02:04:00;;;;;;;2.03;1.00;;;11.90;99.90;;;;;;4954340;28;20035;-79
2023/10/21 02:06:27;;;;;;;1.17;1.00;;;12.00;99.90;;;;;;4965978;28;20638;-79
2023/10/21 02:08:55;;;;;;;0.88;0.77;;;12.00;99.90;;;;;;4959000;28;20081;-79
2023/10/21 02:11:24;;;;;;;4.93;1.13;;;12.00;99.90;;;;;;4956796;28;20034;-80
2023/10/21 02:13:50;;;;;;;1.50;0.90;;;12.10;99.90;;;;;;4972210;28;20402;-79
2023/10/21 02:16:16;;;;;;;1.30;1.00;;;12.00;99.90;;;;;;4971805;28;20554;-79
2023/10/21 02:18:41;;;;;;;4.00;0.90;;;12.10;99.90;;;;;;4958690;28;20553;-79
2023/10/21 02:21:07;;;;;;;6.82;1.17;;;12.10;99.90;;;;;;4969222;28;20035;-79
2023/10/21 02:23:33;;;;;;;4.25;1.00;;;12.10;99.90;;;;;;4977084;28;20042;-79
2023/10/21 02:26:05;;;;;;;1.73;0.95;;;12.10;99.90;;;;;;4958695;28;20050;-79
2023/10/21 02:28:30;;;;;;;4.32;1.33;;;12.10;99.90;;;;;;4973060;28;20038;-79
2023/10/21 02:30:56;;;;;;;1.55;0.98;;;12.10;99.90;;;;;;4972663;28;20527;-79
2023/10/21 02:33:25;;;;;;;2.47;1.13;;;12.10;99.90;;;;;;4969462;28;20034;-79
2023/10/21 02:35:52;;;;;;;2.75;1.20;;;12.10;99.90;;;;;;4971516;28;20033;-79
2023/10/21 02:38:17;;;;;;;3.15;1.38;;;12.10;99.90;;;;;;4961834;28;20088;-80
2023/10/21 02:40:43;;;;;;;3.00;1.20;;;12.10;99.90;;;;;;4973984;28;20042;-80
2023/10/21 02:43:11;;;;;;;1.55;0.77;;;12.10;99.90;;;;;;4975811;28;20406;-79
2023/10/21 02:45:37;;;;;;;1.15;1.05;;;12.10;99.90;;;;;;4960004;28;20040;-79
2023/10/21 02:48:03;;;;;;;2.25;1.02;;;12.20;99.90;;;;;;4975144;28;20868;-79
2023/10/21 02:50:28;;;;;;;1.45;0.88;;;12.20;99.90;;;;;;4971956;28;20041;-80
2023/10/21 02:52:54;;;;;;;1.40;0.60;;;12.20;99.90;;;;;;4979032;28;20522;-79
2023/10/21 02:55:19;;;;;;;5.03;0.82;;;12.30;99.90;;;;;;4975818;28;20437;-78
2023/10/21 02:57:45;;;;;;;1.27;0.70;;;12.30;99.90;;;;;;4957704;28;20109;-79
2023/10/21 03:00:15;;;;;;;1.08;0.70;;;12.30;99.90;;;;;;4972115;28;20125;-80
2023/10/21 03:02:42;;;;;;;1.65;0.85;;;12.30;99.90;;;;;;4944103;28;20034;-80
2023/10/21 03:05:08;;;;;;;1.50;0.70;;;12.30;99.90;;;;;;4954523;28;20068;-79
2023/10/21 03:07:33;;;;;;;1.27;0.70;;;12.30;99.90;;;;;;4972244;28;20463;-79
2023/10/21 03:10:00;;;;;;;2.10;1.75;;;12.40;99.90;;;;;;4971672;28;20038;-79
2023/10/21 03:12:26;;;;;;;0.50;0.50;;;12.40;99.90;;;;;;4965251;28;20030;-81
2023/10/21 03:14:51;;;;;;;3.25;0.95;;;12.40;99.90;;;;;;4963095;28;20117;-79
2023/10/21 03:17:17;;;;;;;3.60;1.10;;;12.50;99.90;;;;;;4974449;28;20634;-78
2023/10/21 03:19:42;;;;;;;1.20;0.80;;;12.60;99.90;;;;;;4975702;28;20462;-79
2023/10/21 03:22:08;;;;;;;1.05;0.60;;;12.60;99.90;;;;;;4958799;28;20645;-79
2023/10/21 03:24:33;;;;;;;2.00;1.33;;;12.60;99.90;;;;;;4957793;28;20062;-79
2023/10/21 03:26:59;;;;;;;2.72;0.70;;;12.60;99.90;;;;;;4972841;28;20061;-80
2023/10/21 03:29:24;;;;;;;3.67;1.23;;;12.60;99.90;;;;;;4959239;28;20033;-79
2023/10/21 03:31:50;;;;;;;1.38;0.80;;;12.60;99.90;;;;;;4960940;28;20030;-80
2023/10/21 03:34:16;;;;;;;2.35;0.60;;;12.60;99.90;;;;;;4973905;28;20061;-80
2023/10/21 03:36:41;;;;;;;1.67;0.98;;;12.60;99.90;;;;;;4970955;28;20108;-80
2023/10/21 03:39:07;;;;;;;1.13;0.82;;;12.60;99.90;;;;;;4972769;28;20133;-79
2023/10/21 03:41:33;;;;;;;0.95;0.90;;;12.60;99.90;;;;;;4958387;28;20054;-79
2023/10/21 03:43:58;;;;;;;1.27;0.80;;;12.70;99.90;;;;;;4959132;28;20037;-80
2023/10/21 03:46:24;;;;;;;1.02;1.00;;;12.70;99.90;;;;;;4971350;28;20178;-80
2023/10/21 03:48:50;;;;;;;0.90;0.90;;;12.70;99.90;;;;;;4958671;28;20140;-80
2023/10/21 03:51:16;;;;;;;0.73;0.60;;;12.70;99.90;;;;;;4975409;28;20469;-80
2023/10/21 03:53:42;;;;;;;1.08;0.90;;;12.80;99.90;;;;;;4961857;28;20125;-80
2023/10/21 03:56:08;;;;;;;0.85;0.70;;;12.80;99.90;;;;;;4960927;28;20133;-80
2023/10/21 03:58:34;;;;;;;2.88;1.10;;;12.80;99.90;;;;;;4975770;28;20037;-80
2023/10/21 04:00:59;;;;;;;1.55;1.10;;;12.80;99.90;;;;;;4971099;28;20043;-79
2023/10/21 04:03:28;;;;;;;1.85;0.93;;;12.80;99.90;;;;;;4960929;28;20133;-79
2023/10/21 04:05:54;;;;;;;1.92;1.17;;;12.80;99.90;;;;;;4955376;28;20034;-79
2023/10/21 04:08:20;;;;;;;1.63;0.98;;;12.80;99.90;;;;;;4971948;28;20034;-80
2023/10/21 04:10:46;;;;;;;2.47;1.08;;;12.80;99.90;;;;;;4938161;28;20050;-80
2023/10/21 04:13:12;;;;;;;0.80;0.80;;;12.80;99.90;;;;;;4960181;28;20034;-80
2023/10/21 04:15:37;;;;;;;3.00;1.15;;;12.80;99.90;;;;;;4972019;28;20027;-80
2023/10/21 04:18:03;;;;;;;1.70;1.10;;;12.80;99.90;;;;;;4960132;28;20031;-80
2023/10/21 04:20:31;;;;;;;2.40;1.23;;;12.80;99.90;;;;;;4970082;28;20034;-80
2023/10/21 04:22:57;;;;;;;2.10;1.20;;;12.80;99.90;;;;;;4972865;28;20479;-80
2023/10/21 04:25:22;;;;;;;1.95;1.00;;;12.80;99.90;;;;;;4975046;28;20044;-80
2023/10/21 04:27:48;;;;;;;1.38;0.90;;;12.90;99.90;;;;;;4975660;28;20034;-81
2023/10/21 04:30:13;;;;;;;1.30;1.17;;;12.90;99.90;;;;;;4973885;28;20044;-80
2023/10/21 04:32:40;;;;;;;1.27;1.13;;;12.90;99.90;;;;;;4955939;28;20074;-80
2023/10/21 04:35:06;;;;;;;1.77;1.15;;;12.90;99.90;;;;;;4971766;28;20030;-80
2023/10/21 04:37:31;;;;;;;3.17;1.85;;;12.90;99.90;;;;;;4970523;28;20046;-80
2023/10/21 04:39:57;;;;;;;2.42;1.67;;;12.90;99.90;;;;;;4970810;28;20076;-80
2023/10/21 04:42:26;;;;;;;2.63;1.70;;;12.90;99.90;;;;;;4974157;28;20026;-80
2023/10/21 04:44:52;;;;;;;2.00;1.55;;;12.90;99.90;;;;;;4957182;28;20526;-81
2023/10/21 04:47:18;;;;;;;3.25;1.70;;;12.90;99.90;;;;;;4973874;28;20045;-80
2023/10/21 04:49:44;;;;;;;2.65;1.85;;;12.90;99.90;;;;;;4970212;28;20057;-80
2023/10/21 04:52:12;;;;;;;2.25;1.30;;;13.00;99.90;;;;;;4972009;28;20038;-80
2023/10/21 04:54:38;;;;;;;2.13;1.80;;;13.00;99.90;;;;;;4956017;28;20030;-80
2023/10/21 04:57:04;;;;;;;3.30;1.52;;;12.90;99.90;;;;;;4954405;28;20034;-80
2023/10/21 04:59:29;;;;;;;2.20;1.70;;;13.00;99.90;;;;;;4970412;28;20073;-80
2023/10/21 05:01:55;;;;;;;2.85;1.50;;;12.90;99.90;;;;;;4988556;28;20080;-80
2023/10/21 05:04:21;;;;;;;2.20;1.58;;;13.00;99.90;;;;;;4972589;28;20092;-80
2023/10/21 05:06:47;;;;;;;4.97;1.75;;;13.00;99.90;;;;;;4959580;28;20495;-80
2023/10/21 05:09:12;;;;;;;5.80;2.88;;;13.00;99.90;;;;;;4969400;28;20077;-81
2023/10/21 05:11:38;;;;;;;2.17;1.90;;;13.00;99.90;;;;;;4950342;28;20030;-81
2023/10/21 05:14:04;;;;;;;4.35;2.20;;;13.00;99.90;;;;;;4958247;28;20037;-81
2023/10/21 05:16:31;;;;;;;4.78;1.80;;;13.00;99.90;;;;;;4968914;28;20499;-80
2023/10/21 05:18:57;;;;;;;4.50;2.03;;;13.00;99.90;;;;;;4961915;28;20061;-80
2023/10/21 05:21:22;;;;;;;3.67;1.70;;;13.00;99.90;;;;;;4974501;28;20030;-80
2023/10/21 05:23:48;;;;;;;4.10;2.10;;;13.00;99.90;;;;;;4971323;28;20048;-81
2023/10/21 05:26:13;;;;;;;2.08;1.80;;;13.00;99.90;;;;;;4967331;28;20038;-81
2023/10/21 05:28:39;;;;;;;3.42;2.40;;;13.00;99.90;;;;;;4971593;28;20034;-81
2023/10/21 05:31:05;;;;;;;2.88;2.28;;;13.00;99.90;;;;;;4972363;28;20046;-80
2023/10/21 05:33:30;;;;;;;5.28;2.47;;;13.00;99.90;;;;;;4954223;28;20494;-80
2023/10/21 05:35:59;;;;;;;6.18;2.40;;;13.00;99.90;;;;;;4970052;28;20046;-80
2023/10/21 05:38:25;;;;;;;5.50;2.60;;;13.00;99.90;;;;;;4955696;28;20041;-80
2023/10/21 05:40:50;;;;;;;6.07;2.15;;;12.90;99.90;;;;;;4956895;28;20050;-80
2023/10/21 05:43:16;;;;;;;3.92;2.20;;;12.90;99.90;;;;;;4971236;28;20030;-80
2023/10/21 05:45:43;;;;;;;2.85;1.90;;;12.90;99.90;;;;;;4973216;28;20130;-81
2023/10/21 05:48:11;;;;;;;2.55;1.80;;;12.90;99.90;;;;;;4972863;28;20058;-80
2023/10/21 05:50:37;;;;;;;2.55;1.92;;;12.80;99.90;;;;;;4971068;28;20064;-81
2023/10/21 05:53:05;;;;;;;5.13;2.33;;;12.80;99.90;;;;;;4968597;28;20062;-80
2023/10/21 05:55:31;;;;;;;4.93;2.53;;;12.80;99.90;;;;;;4975261;28;20056;-81
2023/10/21 05:57:56;;;;;;;7.47;2.28;;;12.70;99.90;;;;;;4973366;28;20542;-79
2023/10/21 06:00:22;;;;;;;4.20;2.28;;;12.70;99.90;;;;;;4970378;28;20201;-80
2023/10/21 06:02:48;;;;;;;6.35;2.60;;;12.70;99.90;;;;;;4979383;28;20085;-80
2023/10/21 06:05:16;;;;;;;3.67;1.88;;;12.70;99.90;;;;;;4975822;28;20030;-81
2023/10/21 06:07:42;;;;;;;2.65;1.70;;;12.60;99.90;;;;;;4960357;28;20085;-81
2023/10/21 06:10:08;;;;;;;4.95;2.20;;;12.60;99.90;;;;;;4961030;28;20478;-80
2023/10/21 06:12:33;;;;;;;3.35;2.03;;;12.60;99.90;;;;;;4974860;28;20030;-81
2023/10/21 06:14:59;;;;;;;4.25;2.30;;;12.60;99.90;;;;;;4974737;28;20520;-80
2023/10/21 06:17:25;;;;;;;2.30;1.67;;;12.60;99.90;;;;;;4964347;28;20038;-80
2023/10/21 06:19:51;;;;;;;2.75;2.08;;;12.50;99.90;;;;;;4961348;28;20062;-81
2023/10/21 06:22:17;;;;;;;5.63;2.20;;;12.50;99.90;;;;;;4977971;28;20482;-80
2023/10/21 06:24:43;;;;;;;5.22;2.58;;;12.50;99.90;;;;;;4961876;28;20112;-80
2023/10/21 06:27:09;;;;;;;4.22;2.10;;;12.50;99.90;;;;;;4977116;28;20035;-81
2023/10/21 06:29:37;;;;;;;4.05;2.90;;;12.50;99.90;;;;;;4958400;28;20045;-80
2023/10/21 06:32:06;;;;;;;3.25;1.83;;;12.50;99.90;;;;;;4975768;28;20057;-81
2023/10/21 06:34:35;;;;;;;2.88;2.08;;;12.50;99.90;;;;;;4958907;28;20057;-81
2023/10/21 06:37:00;;;;;;;4.00;2.20;;;12.50;99.90;;;;;;4976699;28;20100;-82
2023/10/21 06:39:26;;;;;;;2.83;1.83;;;12.60;99.90;;;;;;4955968;28;20034;-80
2023/10/21 06:41:52;;;;;;;3.28;2.00;;;12.60;99.90;;;;;;4971922;28;20038;-81
2023/10/21 06:44:17;;;;;;;2.95;2.25;;;12.60;99.90;;;;;;4977001;28;20057;-80
2023/10/21 06:46:43;;;;;;;5.15;2.40;;;12.60;99.90;;;;;;4974231;28;20113;-80
2023/10/21 06:49:09;;;;;;;3.72;2.15;;;12.60;99.90;;;;;;4973455;28;20503;-81
2023/10/21 06:51:36;;;;;;;4.03;2.45;;;12.70;99.90;;;;;;4975564;28;20041;-81
2023/10/21 06:54:07;;;;;;;2.78;2.15;;;12.80;99.90;;;;;;4961652;28;20499;-80
2023/10/21 06:56:33;;;;;;;5.10;2.38;;;12.80;99.90;;;;;;4971378;28;20038;-80
2023/10/21 06:58:59;;;;;;;2.40;1.60;;;12.80;99.90;;;;;;4954037;28;20041;-80
2023/10/21 07:01:26;;;;;;;3.45;1.75;;;12.80;99.90;;;;;;4973063;28;20042;-81
2023/10/21 07:03:53;;;;;;;2.20;2.00;;;12.90;99.90;;;;;;4972893;28;20042;-78
2023/10/21 07:06:18;;;;;;;1.50;1.35;;;12.90;99.90;;;;;;4976902;28;20030;-78
2023/10/21 07:08:44;;;;;;;2.78;1.58;;;12.90;99.90;;;;;;4972693;28;20050;-79
2023/10/21 07:11:09;;;;;;;2.00;1.23;;;12.90;99.90;;;;;;4972926;28;20030;-78
2023/10/21 07:13:35;;;;;;;1.50;1.20;;;13.00;99.90;;;;;;4962241;28;20042;-78
2023/10/21 07:16:10;;;;;;;2.25;1.15;;;13.00;99.90;;;;;;4678101;28;10000764;-79
2023/10/21 07:18:36;;;;;;;1.75;1.00;;;13.10;99.90;;;;;;4272297;28;10000517;-77
2023/10/21 07:21:02;;;;;;;1.48;1.10;;;13.20;99.90;;;;;;4957540;28;20421;-77
2023/10/21 07:23:28;;;;;;;4.72;1.33;;;13.30;99.90;;;;;;4614326;28;10000293;-77
2023/10/21 07:25:54;;;;;;;1.25;1.00;;;13.30;99.90;;;;;;4959083;28;20128;-77
2023/10/21 07:28:19;;;;;;;0.90;0.80;;;13.30;99.90;;;;;;4959266;28;20045;-77
2023/10/21 07:30:45;;;;;;;1.42;1.02;;;13.30;99.90;;;;;;4973579;28;20498;-77
2023/10/21 07:33:10;;;;;;;4.10;0.95;;;13.30;99.90;;;;;;4976771;28;20367;-77
2023/10/21 07:35:36;;;;;;;3.05;0.90;;;13.30;99.90;;;;;;4974156;28;20034;-77
2023/10/21 07:38:03;;;;;;;2.85;0.75;;;13.40;99.90;;;;;;4977812;28;20034;-77
2023/10/21 07:40:29;;;;;;;3.00;0.50;;;13.40;99.90;;;;;;4976862;28;20065;-77
2023/10/21 07:42:55;;;;;;;3.60;0.90;;;13.40;99.90;;;;;;4973687;28;20068;-77
2023/10/21 07:45:21;;;;;;;1.90;0.80;;;13.40;99.90;;;;;;4952208;28;20488;-77
2023/10/21 07:47:47;;;;;;;1.55;0.52;;;13.50;99.90;;;;;;4969988;28;20030;-77
2023/10/21 07:50:13;;;;;;;2.00;1.02;;;13.50;99.90;;;;;;4970527;28;20034;-77
2023/10/21 07:52:39;;;;;;;0.75;0.50;;;13.50;99.90;;;;;;4961248;28;20048;-77
2023/10/21 07:55:04;;;;;;;0.40;0.40;;;13.50;99.90;;;;;;4973855;28;20057;-77
2023/10/21 07:57:31;;;;;;;0.77;0.50;;;13.50;99.90;;;;;;4961169;28;20379;-77
2023/10/21 07:59:58;;;;;;;2.05;0.80;;;13.50;99.90;;;;;;4941455;28;20054;-77
2023/10/21 08:02:25;;;;;;;0.73;0.47;;;13.50;99.90;;;;;;4956924;28;20030;-77
2023/10/21 08:04:52;;;;;;;0.28;0.28;;;13.60;99.90;;;;;;4958986;28;20756;-77
2023/10/21 08:07:18;;;;;;;0.57;0.40;;;13.50;99.90;;;;;;4970637;28;20508;-77
2023/10/21 08:09:43;;;;;;;0.57;0.20;;;13.50;99.90;;;;;;4960001;28;20039;-78
2023/10/21 08:12:09;;;;;;;3.03;0.57;;;13.50;99.90;;;;;;4956415;28;20030;-78
2023/10/21 08:14:36;;;;;;;0.38;0.30;;;13.60;99.90;;;;;;4974724;28;20030;-78
2023/10/21 08:17:04;;;;;;;0.35;0.35;;;13.60;99.90;;;;;;4959737;28;20037;-78
2023/10/21 08:19:30;;;;;;;1.05;0.50;;;13.70;99.90;;;;;;4976425;28;20038;-78
2023/10/21 08:21:57;;;;;;;1.85;0.63;;;13.70;99.90;;;;;;4973530;28;20438;-78
2023/10/21 08:24:23;;;;;;;2.88;0.55;;;13.80;99.90;;;;;;4957162;28;20429;-79
2023/10/21 08:26:48;;;;;;;1.55;0.77;;;13.80;99.90;;;;;;4954510;28;20273;-78
2023/10/21 08:29:14;;;;;;;0.40;0.40;;;13.90;99.90;;;;;;4955819;28;20542;-77
2023/10/21 08:31:40;;;;;;;0.60;0.50;;;14.00;99.90;;;;;;4954862;28;20050;-78
2023/10/21 08:34:09;;;;;;;0.52;0.40;;;14.00;99.90;;;;;;4959485;28;20038;-78
2023/10/21 08:36:35;;;;;;;2.08;0.50;;;14.00;99.90;;;;;;4955420;28;20031;-78
2023/10/21 08:39:01;;;;;;;0.60;0.60;;;14.10;99.90;;;;;;4974833;28;20042;-78
2023/10/21 08:41:28;;;;;;;0.95;0.57;;;14.10;99.90;;;;;;4972043;28;20090;-78
2023/10/21 08:43:54;;;;;;;0.70;0.65;;;14.10;99.90;;;;;;4956527;28;20038;-79
2023/10/21 08:46:20;;;;;;;2.03;0.40;;;14.10;99.90;;;;;;4974044;28;20093;-78
2023/10/21 08:48:46;;;;;;;5.55;0.57;;;14.10;99.90;;;;;;4962191;28;20092;-78
2023/10/21 08:51:15;;;;;;;0.75;0.68;;;14.10;99.90;;;;;;4971031;28;20046;-79
2023/10/21 08:53:41;;;;;;;1.50;0.68;;;14.00;99.90;;;;;;4978351;28;20037;-78
2023/10/21 08:56:06;;;;;;;2.42;0.40;;;14.00;99.90;;;;;;4967504;28;20042;-78
2023/10/21 08:58:32;;;;;;;2.33;0.70;;;14.00;99.90;;;;;;4959328;28;20042;-79
2023/10/21 09:00:59;;;;;;;1.23;0.43;;;14.10;99.90;;;;;;4974203;28;20038;-78
2023/10/21 09:03:25;;;;;;;2.72;0.63;;;14.10;99.90;;;;;;4972651;28;20732;-79
2023/10/21 09:06:12;;;;;;;1.83;0.55;;;14.20;99.90;;;;;;4944035;28;20042;-78
2023/10/21 09:08:38;;;;;;;0.38;0.32;;;14.30;99.90;;;;;;4956393;28;20463;-78
2023/10/21 09:11:07;;;;;;;0.65;0.30;;;14.40;99.90;;;;;;4974217;28;20058;-79
2023/10/21 09:13:37;;;;;;;1.15;0.32;;;14.40;99.90;;;;;;4974389;28;20066;-79
2023/10/21 09:16:06;;;;;;;1.10;0.30;;;14.40;99.90;;;;;;4958870;28;20521;-78
2023/10/21 09:18:34;;;;;;;0.25;0.25;;;14.50;99.90;;;;;;4956491;28;20081;-79
2023/10/21 09:21:01;;;;;;;2.40;0.30;;;14.50;99.90;;;;;;4956319;28;20042;-79
2023/10/21 09:23:26;;;;;;;0.20;0.20;;;14.40;99.90;;;;;;4970434;28;20038;-80
2023/10/21 09:25:54;;;;;;;0.32;0.25;;;14.40;99.90;;;;;;4970454;28;20038;-78
2023/10/21 09:28:23;;;;;;;0.47;0.40;;;14.40;99.90;;;;;;4960610;28;20034;-78
2023/10/21 09:30:58;;;;;;;0.47;0.22;;;14.50;99.90;;;;;;4960825;28;20068;-78
2023/10/21 09:33:27;;;;;;;0.23;0.23;;;14.50;99.90;;;;;;4941914;28;20030;-79
2023/10/21 09:36:03;;;;;;;1.02;0.45;;;14.70;99.90;;;;;;4956510;28;20058;-78
2023/10/21 09:38:34;;;;;;;1.40;0.43;;;14.70;99.90;;;;;;4955960;28;20471;-79
2023/10/21 09:41:01;;;;;;;2.53;0.40;;;14.80;99.90;;;;;;4956096;28;20045;-80
2023/10/21 09:43:26;;;;;;;0.30;0.30;;;14.90;99.90;;;;;;4958415;28;20022;-78
2023/10/21 09:45:52;;;;;;;0.30;0.30;;;15.00;99.90;;;;;;4954628;28;20531;-79
2023/10/21 09:48:18;;;;;;;1.98;0.40;;;15.10;99.90;;;;;;4972867;28;21318;-79
2023/10/21 09:50:49;;;;;;;1.75;0.25;;;15.30;99.90;;;;;;4972240;28;20038;-78
2023/10/21 09:53:15;;;;;;;0.98;0.20;;;15.30;99.90;;;;;;4959654;28;20573;-78
2023/10/21 09:55:44;;;;;;;0.17;0.10;;;15.20;99.90;;;;;;4955903;28;20042;-80
2023/10/21 09:58:09;;;;;;;2.60;0.35;;;15.40;99.90;;;;;;4977680;28;20061;-79
2023/10/21 10:00:35;;;;;;;0.30;0.25;;;15.50;99.90;;;;;;4957138;28;20038;-80
2023/10/21 10:03:01;;;;;;;1.10;0.40;;;15.50;99.90;;;;;;4975085;28;20117;-79
2023/10/21 10:05:26;;;;;;;0.40;0.32;;;15.60;99.90;;;;;;4957195;28;20051;-78
2023/10/21 10:07:52;;;;;;;0.60;0.20;;;15.40;99.90;;;;;;4972677;28;20045;-79
2023/10/21 10:10:20;;;;;;;2.95;0.38;;;15.50;99.90;;;;;;4976534;28;20057;-80
2023/10/21 10:12:58;;;;;;;0.47;0.32;;;15.40;99.90;;;;;;4973381;28;20030;-79
2023/10/21 10:15:34;;;;;;;0.35;0.32;;;15.40;99.90;;;;;;4970601;28;20064;-79
2023/10/21 10:18:03;;;;;;;0.47;0.38;;;15.40;99.90;;;;;;4942985;28;20034;-78
2023/10/21 10:20:29;;;;;;;1.60;0.40;;;15.50;99.90;;;;;;4940369;28;20076;-78
2023/10/21 10:23:02;;;;;;;0.50;0.30;;;15.60;99.90;;;;;;4956333;28;20046;-78
2023/10/21 10:25:32;;;;;;;0.10;0.10;;;15.70;99.90;;;;;;4953826;28;20045;-78
2023/10/21 10:28:07;;;;;;;0.57;0.20;;;15.90;99.90;;;;;;4955220;28;20042;-78
2023/10/21 10:30:34;;;;;;;0.68;0.30;;;16.00;99.90;;;;;;4973450;28;20414;-78
2023/10/21 10:33:12;;;;;;;1.70;0.20;;;16.30;99.90;;;;;;4972187;28;20059;-78
2023/10/21 10:35:48;;;;;;;0.68;0.40;;;16.20;99.90;;;;;;4958615;28;20066;-78
2023/10/21 10:38:26;;;;;;;1.17;0.38;;;16.20;99.90;;;;;;4973321;28;20026;-78
2023/10/21 10:40:59;;;;;;;2.03;0.20;;;16.50;99.90;;;;;;4975106;28;20557;-78
2023/10/21 10:43:24;;;;;;;2.10;0.20;;;16.70;99.90;;;;;;4974844;28;20038;-78
2023/10/21 10:45:51;;;;;;;4.35;0.40;;;16.80;99.90;;;;;;4955395;28;20487;-78
2023/10/21 10:48:16;;;;;;;1.98;0.20;;;16.90;99.90;;;;;;4974612;28;20266;-78
2023/10/21 10:50:42;;;;;;;1.40;0.25;;;16.90;99.90;;;;;;4955841;28;20029;-78
2023/10/21 10:53:15;;;;;;;0.52;0.15;;;17.10;99.90;;;;;;4973393;28;20065;-79
2023/10/21 10:55:42;;;;;;;0.82;0.50;;;17.20;99.90;;;;;;4974781;28;20069;-78
2023/10/21 10:58:08;;;;;;;3.90;0.30;;;17.40;99.90;;;;;;4958876;28;20042;-79
2023/10/21 11:00:33;;;;;;;2.50;0.45;;;17.50;99.90;;;;;;4957391;28;20034;-78
2023/10/21 11:03:00;;;;;;;1.75;0.50;;;17.50;99.90;;;;;;4973709;28;20053;-78
2023/10/21 11:05:28;;;;;;;0.47;0.30;;;17.60;99.90;;;;;;4959871;28;20051;-78
2023/10/21 11:07:57;;;;;;;2.58;0.50;;;17.40;99.90;;;;;;4973445;28;20035;-78
2023/10/21 11:10:24;;;;;;;0.10;0.10;;;17.70;99.90;;;;;;4976174;28;21569;-78
2023/10/21 11:12:50;;;;;;;1.30;0.40;;;17.80;99.90;;;;;;4958450;28;20034;-79
2023/10/21 11:15:16;;;;;;;3.78;0.30;;;17.70;99.90;;;;;;4957655;28;20034;-78
2023/10/21 11:17:43;;;;;;;1.67;0.40;;;17.80;99.90;;;;;;4971236;28;20034;-78
2023/10/21 11:20:10;;;;;;;1.95;0.57;;;18.00;99.90;;;;;;4974044;28;20122;-79
2023/10/21 11:22:36;;;;;;;0.90;0.20;;;18.10;99.90;;;;;;4959519;28;20026;-78
2023/10/21 11:25:03;;;;;;;2.95;0.47;;;18.40;99.90;;;;;;4960194;28;20568;-79
2023/10/21 11:27:28;;;;;;;3.17;0.70;;;18.30;99.90;;;;;;4957562;28;20038;-78
2023/10/21 11:29:54;;;;;;;0.30;0.20;;;18.30;99.90;;;;;;4957640;28;20130;-78
2023/10/21 11:32:27;;;;;;;3.80;0.40;;;18.20;99.90;;;;;;4977521;28;20406;-79
2023/10/21 11:35:03;;;;;;;1.27;0.20;;;18.10;99.90;;;;;;4961164;28;20026;-78
2023/10/21 11:37:29;;;;;;;1.63;0.20;;;18.30;99.90;;;;;;4615346;28;9999724;-78
2023/10/21 11:39:55;;;;;;;3.65;0.32;;;18.40;99.90;;;;;;4971644;28;20042;-78
2023/10/21 11:42:21;;;;;;;2.55;0.30;;;18.40;99.90;;;;;;4961020;28;20066;-79
2023/10/21 11:45:00;;;;;;;4.28;0.30;;;18.50;99.90;;;;;;4970209;28;20035;-78
2023/10/21 11:47:27;;;;;;;0.82;0.30;;;18.50;99.90;;;;;;4954206;28;20601;-79
2023/10/21 11:49:53;;;;;;;3.28;0.30;;;18.50;99.90;;;;;;4972483;28;20030;-78
2023/10/21 11:52:21;;;;;;;1.50;0.38;;;18.20;99.90;;;;;;4974400;28;20031;-79
2023/10/21 11:54:48;;;;;;;2.55;0.50;;;18.40;99.90;;;;;;4972616;28;20482;-80
2023/10/21 11:57:41;;;;;;;1.42;0.35;;;18.60;99.90;;;;;;4972941;28;20038;-79
2023/10/21 12:27:53;;;;;;;0.98;0.28;;;19.10;99.90;;;;;;4973697;28;20121;-79
2023/10/21 12:39:57;;;;;;;3.85;0.65;;;19.10;98.20;;;;;;4976375;28;20458;-78
2023/10/21 12:42:27;;;;;;;2.08;0.60;;;19.10;99.30;;;;;;4952715;28;20054;-78
2023/10/21 12:45:05;;;;;;;4.60;0.60;;;19.10;98.40;;;;;;4956207;28;20027;-79
2023/10/21 12:47:30;;;;;;;1.90;0.30;;;19.00;98.90;;;;;;4961449;28;20368;-78
2023/10/21 12:49:56;;;;;;;3.72;0.85;;;18.90;99.30;;;;;;4972826;28;20025;-79
2023/10/21 12:52:22;;;;;;;5.68;0.70;;;19.00;98.70;;;;;;4970543;28;20041;-79
2023/10/21 12:54:48;;;;;;;3.60;0.70;;;19.00;98.10;;;;;;4974209;28;20029;-79
2023/10/21 12:57:14;;;;;;;1.88;0.77;;;19.20;98.90;;;;;;4960128;28;20414;-78
2023/10/21 12:59:40;;;;;;;5.72;0.98;;;19.20;98.50;;;;;;4957093;28;20435;-79
2023/10/21 13:02:09;;;;;;;1.77;0.52;;;19.30;97.60;;;;;;4941106;28;20458;-79
2023/10/21 13:04:36;;;;;;;4.78;1.00;;;19.30;97.20;;;;;;4956451;28;20045;-79
2023/10/21 13:07:04;;;;;;;3.17;0.60;;;19.40;97.80;;;;;;4972034;28;20041;-79
2023/10/21 13:09:30;;;;;;;6.63;1.10;;;19.60;97.00;;;;;;4957180;28;20026;-79
2023/10/21 13:11:56;;;;;;;3.00;0.60;;;19.40;96.80;;;;;;4943821;28;20386;-79
2023/10/21 13:14:27;;;;;;;4.07;0.85;;;19.50;97.50;;;;;;4954084;28;20034;-79
2023/10/21 13:16:52;;;;;;;3.33;0.80;;;19.60;97.40;;;;;;4957597;28;20068;-79
2023/10/21 13:19:18;;;;;;;3.75;1.13;;;19.60;96.40;;;;;;4957122;28;20429;-79
2023/10/21 13:21:44;;;;;;;3.03;0.90;;;19.70;95.50;;;;;;4973897;28;20052;-79